Aviation Digital Data Service (ADDS)

Output produced by TAFs form (0902 UTC 30 May 2017)
found at http://www.aviationweather.gov/adds/tafs/
 
METAR text: RJBB 300830Z 26003KT CAVOK 26/16 Q1009 NOSIG
Conditions at: RJBB (KANSAI INTL , JP) observed 0830 UTC 30 May 2017
Temperature: 26.0°C (79°F)
Dewpoint: 16.0°C (61°F) [RH = 54%]
Pressure (altimeter): 29.79 inches Hg (1009.0 mb)
Winds: from the W (260 degrees) at 3 MPH (3 knots; 1.6 m/s)
Visibility: 6 or more miles (10+ km)
Ceiling: ceiling and visibility are OK
Clouds: unknown
Weather: no significant weather observed at this time

Forecast for: RJBB (KANSAI INTL , JP)
Text: TAF RJBB 300505Z 3006/3112 20011KT 9999 FEW030
Forecast period: 0600 UTC 30 May 2017 to 1200 UTC 31 May 2017
Forecast type: FROM: standard forecast or significant change
Winds: from the SSW (200 degrees) at 13 MPH (11 knots; 5.7 m/s)
Visibility: 6 or more miles (10+ km)
Clouds: few clouds at 3000 feet AGL
Weather: no significant weather forecast for this period